Time;durP1;ratioP1;P1;durP2;ratioP2;P2;SDS_P1;SDS_P2;PMS_P1;PMS_P2;Temp;Humidity;BMP_temperature;BMP_pressure;BME280_temperature;BME280_humidity;BME280_pressure;Samples;Min_cycle;Max_cycle;Signal;HPM_P1;HPM_P2
2022/03/13 00:00:36;;;;;;;18.70;13.57;;;;;;;6.47;54.42;101046.75;690363;28;941;-88
2022/03/13 00:01:03;;;;;;;21.73;13.68;;;;;;;6.32;54.53;101028.75;685139;28;1314;-87
2022/03/13 00:01:23;;;;;;;22.30;13.82;;;;;;;6.33;54.54;101031.44;687835;28;1275;-87
2022/03/13 00:01:45;;;;;;;20.30;13.60;;;;;;;6.31;54.75;101027.84;687920;28;1117;-86
2022/03/13 00:02:09;;;;;;;22.27;13.75;;;;;;;6.34;54.62;101033.22;687837;28;1107;-87
2022/03/13 00:02:29;;;;;;;23.55;14.05;;;;;;;6.29;54.59;101032.97;693229;28;1477;-87
2022/03/13 00:02:50;;;;;;;23.65;14.20;;;;;;;6.41;54.53;101048.25;693313;28;1149;-87
2022/03/13 00:03:11;;;;;;;21.83;14.18;;;;;;;6.36;54.72;101038.44;692995;28;1309;-87
2022/03/13 00:03:32;;;;;;;19.85;13.75;;;;;;;6.37;54.63;101043.72;687927;28;1050;-87
2022/03/13 00:03:53;;;;;;;20.42;13.93;;;;;;;6.28;54.58;101031.16;690716;28;1325;-86
2022/03/13 00:04:14;;;;;;;20.58;14.30;;;;;;;6.28;54.69;101030.31;690442;28;989;-87
2022/03/13 00:04:36;;;;;;;19.53;14.03;;;;;;;6.26;54.71;101026.75;687744;28;1181;-87
2022/03/13 00:04:57;;;;;;;18.08;13.77;;;;;;;6.26;54.79;101030.22;690681;28;791;-87
2022/03/13 00:05:18;;;;;;;18.50;13.68;;;;;;;6.32;54.85;101045.19;693149;28;1190;-87
2022/03/13 00:05:41;;;;;;;19.67;14.25;;;;;;;6.21;54.75;101026.53;693329;28;1261;-87
2022/03/13 00:06:02;;;;;;;18.90;14.20;;;;;;;6.32;54.84;101052.94;693250;28;1077;-87
2022/03/13 00:06:35;;;;;;;19.92;14.60;;;;;;;6.28;54.98;101051.91;692965;28;1120;-87
2022/03/13 00:06:56;;;;;;;20.52;14.25;;;;;;;6.24;54.79;101039.63;693274;28;1217;-87
2022/03/13 00:07:24;;;;;;;19.98;14.20;;;;;;;6.22;54.84;101037.75;693102;28;1208;-87
2022/03/13 00:07:46;;;;;;;18.92;14.20;;;;;;;6.25;54.77;101036.22;690552;28;1232;-87
2022/03/13 00:08:30;;;;;;;19.33;14.30;;;;;;;6.29;54.84;101042.44;693169;28;1323;-87
2022/03/13 00:08:54;;;;;;;21.35;14.88;;;;;;;6.21;55.09;101029.13;696140;28;800;-87
2022/03/13 00:09:25;;;;;;;21.35;14.60;;;;;;;6.28;54.50;101038.94;693105;28;1352;-87
2022/03/13 00:09:49;;;;;;;20.90;13.98;;;;;;;6.22;54.78;101028.31;690499;28;922;-87
2022/03/13 00:10:10;;;;;;;22.20;14.25;;;;;;;6.27;54.71;101039.75;693136;28;1105;-87
2022/03/13 00:10:32;;;;;;;21.23;14.70;;;;;;;6.23;54.93;101030.06;693283;28;1141;-87
2022/03/13 00:10:59;;;;;;;20.83;14.50;;;;;;;6.25;54.68;101038.81;693336;28;1271;-86
2022/03/13 00:11:19;;;;;;;19.60;14.13;;;;;;;6.17;54.97;101032.34;690369;28;1388;-87
2022/03/13 00:11:40;;;;;;;19.00;13.57;;;;;;;6.21;54.84;101034.31;690782;28;775;-87
2022/03/13 00:12:08;;;;;;;18.50;13.80;;;;;;;6.19;54.96;101041.09;690655;28;763;-87
2022/03/13 00:12:32;;;;;;;18.85;13.68;;;;;;;6.11;55.20;101026.84;693268;28;944;-87
2022/03/13 00:12:54;;;;;;;19.10;13.20;;;;;;;6.15;54.79;101039.16;696107;28;1193;-87
2022/03/13 00:13:18;;;;;;;20.38;13.38;;;;;;;6.07;54.98;101025.81;693170;28;1017;-87
2022/03/13 00:13:49;;;;;;;20.88;13.18;;;;;;;6.01;55.29;101021.22;693215;28;1910;-87
2022/03/13 00:14:10;;;;;;;20.70;12.82;;;;;;;5.99;54.94;101012.47;693144;28;1093;-86
2022/03/13 00:14:31;;;;;;;19.80;13.15;;;;;;;6.04;55.24;101028.25;690483;28;1223;-87
2022/03/13 00:14:55;;;;;;;18.67;13.13;;;;;;;6.05;55.17;101031.72;690761;28;740;-87
2022/03/13 00:15:34;;;;;;;19.05;13.40;;;;;;;5.98;55.10;101030.53;690531;28;807;-87
2022/03/13 00:15:54;;;;;;;18.42;12.70;;;;;;;5.92;54.97;101020.75;688429;28;1205;-87
2022/03/13 00:16:15;;;;;;;17.30;13.27;;;;;;;5.95;55.35;101025.19;687942;28;1233;-89
2022/03/13 00:16:37;;;;;;;18.67;13.90;;;;;;;5.87;55.22;101006.66;690574;28;1170;-89
2022/03/13 00:16:57;;;;;;;19.13;13.68;;;;;;;5.92;55.41;101027.63;690538;28;1336;-88
2022/03/13 00:17:19;;;;;;;19.83;13.53;;;;;;;5.93;55.44;101022.53;687704;28;1238;-87
2022/03/13 00:17:39;;;;;;;19.98;13.55;;;;;;;5.93;55.04;101022.53;693330;28;1088;-87
2022/03/13 00:18:01;;;;;;;20.90;13.80;;;;;;;5.91;55.16;101018.97;693220;28;1264;-87
2022/03/13 00:18:21;;;;;;;19.75;13.48;;;;;;;5.97;55.21;101028.75;685008;28;1244;-87
2022/03/13 00:18:46;;;;;;;20.20;13.63;;;;;;;5.98;55.46;101026.25;690566;28;1239;-88
2022/03/13 00:19:07;;;;;;;20.02;13.88;;;;;;;5.95;55.24;101015.72;693204;28;1075;-86
2022/03/13 00:19:28;;;;;;;21.30;14.52;;;;;;;5.99;55.45;101022.84;695392;28;1366;-87
2022/03/13 00:19:49;;;;;;;20.55;14.20;;;;;;;5.95;55.51;101015.72;689219;28;1341;-87
2022/03/13 00:20:11;;;;;;;18.48;13.50;;;;;;;6.00;55.27;101024.63;690325;28;1190;-87
2022/03/13 00:20:33;;;;;;;19.05;13.00;;;;;;;5.95;55.28;101018.31;690565;28;1267;-88
2022/03/13 00:20:54;;;;;;;18.58;12.90;;;;;;;5.99;55.56;101020.25;690655;28;819;-87
2022/03/13 00:21:16;;;;;;;20.20;13.18;;;;;;;6.04;55.29;101028.25;689986;28;1173;-88
2022/03/13 00:21:39;;;;;;;19.88;13.45;;;;;;;6.00;55.54;101016.84;690660;28;1274;-87
2022/03/13 00:21:59;;;;;;;19.80;13.25;;;;;;;6.07;55.24;101025.81;687952;28;807;-87
2022/03/13 00:22:20;;;;;;;19.10;13.67;;;;;;;5.97;55.29;101019.28;690438;28;1184;-88
2022/03/13 00:22:41;;;;;;;18.15;13.70;;;;;;;6.01;55.25;101025.50;690617;28;1117;-87
2022/03/13 00:23:02;;;;;;;20.40;13.68;;;;;;;5.94;55.27;101008.75;693171;28;1344;-87
2022/03/13 00:23:23;;;;;;;19.90;13.05;;;;;;;5.93;55.42;101008.66;690561;28;1188;-87
2022/03/13 00:23:47;;;;;;;21.20;12.93;;;;;;;5.99;55.27;101011.56;687942;28;953;-87
2022/03/13 00:24:08;;;;;;;19.98;13.10;;;;;;;5.95;55.36;101018.31;693153;28;1241;-87
2022/03/13 00:24:29;;;;;;;19.47;12.80;;;;;;;5.91;55.39;101008.63;690643;28;815;-87
2022/03/13 00:24:50;;;;;;;19.75;13.05;;;;;;;5.95;55.18;101023.47;693177;28;1188;-87
2022/03/13 00:25:11;;;;;;;19.87;12.60;;;;;;;5.91;55.45;101013.78;693004;28;1334;-87
2022/03/13 00:25:33;;;;;;;19.00;11.90;;;;;;;5.99;55.34;101022.84;693206;28;1361;-87
2022/03/13 00:25:53;;;;;;;20.33;11.80;;;;;;;5.87;55.08;101014.44;690656;28;1098;-86
2022/03/13 00:26:15;;;;;;;18.55;12.48;;;;;;;5.96;55.43;101033.03;691001;28;1309;-87
2022/03/13 00:26:36;;;;;;;19.35;12.75;;;;;;;5.89;55.47;101021.47;693266;28;1356;-87
2022/03/13 00:26:57;;;;;;;18.60;13.00;;;;;;;5.88;55.27;101014.53;693316;28;1202;-87
2022/03/13 00:27:17;;;;;;;19.35;12.98;;;;;;;5.80;55.06;101010.66;690434;28;1221;-87
2022/03/13 00:27:39;;;;;;;17.90;12.37;;;;;;;5.80;55.33;101014.94;693372;28;935;-87
2022/03/13 00:28:00;;;;;;;16.17;12.00;;;;;;;5.78;55.47;101003.59;696136;28;890;-87
2022/03/13 00:28:20;;;;;;;16.30;12.20;;;;;;;5.75;55.39;101013.00;693074;28;1280;-87
2022/03/13 00:28:43;;;;;;;18.00;13.07;;;;;;;5.82;55.71;101021.97;690440;28;1283;-87
2022/03/13 00:29:03;;;;;;;17.25;12.88;;;;;;;5.75;55.66;101014.69;690570;28;986;-87
2022/03/13 00:29:24;;;;;;;16.33;12.70;;;;;;;5.77;55.70;101019.97;695603;28;1268;-87
2022/03/13 00:29:45;;;;;;;17.00;12.63;;;;;;;5.86;55.80;101035.97;692790;28;1187;-87
2022/03/13 00:30:06;;;;;;;18.80;13.17;;;;;;;5.74;55.79;101012.91;693234;28;1196;-87
2022/03/13 00:30:27;;;;;;;20.00;13.20;;;;;;;5.75;55.65;101018.19;693340;28;810;-87
2022/03/13 00:30:47;;;;;;;19.17;13.30;;;;;;;5.80;55.61;101031.38;693318;28;1170;-87
2022/03/13 00:31:08;;;;;;;20.13;13.83;;;;;;;5.70;55.88;101017.03;687641;28;1202;-87
2022/03/13 00:31:28;;;;;;;18.80;13.95;;;;;;;5.69;55.71;101015.28;693282;28;1078;-87
2022/03/13 00:31:49;;;;;;;18.70;13.70;;;;;;;5.74;55.64;101029.34;690767;28;1217;-87
2022/03/13 00:32:10;;;;;;;18.95;13.10;;;;;;;5.69;55.76;101017.88;685205;28;1310;-87
2022/03/13 00:32:35;;;;;;;20.35;13.80;;;;;;;5.71;55.72;101016.22;687987;28;759;-87
2022/03/13 00:32:56;;;;;;;20.10;13.93;;;;;;;5.66;55.81;101022.91;693151;28;1286;-87
2022/03/13 00:33:17;;;;;;;20.33;13.70;;;;;;;5.73;56.28;101027.59;693187;28;1014;-87
2022/03/13 00:33:38;;;;;;;21.00;13.15;;;;;;;5.60;55.87;101007.91;690588;28;1923;-87
2022/03/13 00:33:58;;;;;;;19.17;13.33;;;;;;;5.64;55.89;101019.31;690536;28;1170;-87
2022/03/13 00:34:20;;;;;;;18.60;13.35;;;;;;;5.63;56.07;101016.66;687729;28;1203;-87
2022/03/13 00:34:40;;;;;;;17.05;13.07;;;;;;;5.60;56.10;101018.25;693089;28;1040;-87
2022/03/13 00:35:02;;;;;;;16.65;12.82;;;;;;;5.69;55.83;101030.81;693159;28;1069;-87
2022/03/13 00:35:22;;;;;;;19.67;13.05;;;;;;;5.63;56.15;101022.72;687618;28;1363;-87
2022/03/13 00:35:43;;;;;;;20.37;13.60;;;;;;;5.68;56.30;101031.63;687939;28;761;-86
2022/03/13 00:36:04;;;;;;;20.48;13.65;;;;;;;5.62;56.39;101015.75;693357;28;1094;-87
2022/03/13 00:36:25;;;;;;;18.90;13.73;;;;;;;5.61;56.34;101016.56;690319;28;1194;-87
2022/03/13 00:36:46;;;;;;;20.25;14.10;;;;;;;5.62;56.29;101015.75;693345;28;1012;-87
2022/03/13 00:38:00;;;;;;;20.40;14.10;;;;;;;5.73;56.37;101035.34;687814;28;1375;-87
2022/03/13 00:38:32;;;;;;;18.75;13.60;;;;;;;5.69;56.56;101029.91;693273;28;1380;-87
2022/03/13 00:38:52;;;;;;;17.20;12.50;;;;;;;5.70;56.68;101037.75;693219;28;1260;-87
2022/03/13 00:39:14;;;;;;;16.92;12.32;;;;;;;5.69;56.48;101038.56;690575;28;969;-87
2022/03/13 00:39:39;;;;;;;18.95;13.00;;;;;;;5.62;56.49;101036.47;690050;28;1261;-87
2022/03/13 00:40:01;;;;;;;21.73;13.73;;;;;;;5.61;56.60;101024.34;693246;28;1373;-87
2022/03/13 00:40:22;;;;;;;22.63;13.63;;;;;;;5.64;56.49;101037.44;693096;28;1139;-87
2022/03/13 00:40:48;;;;;;;21.55;13.55;;;;;;;5.58;56.56;101024.19;693313;28;1263;-87
2022/03/13 00:41:16;;;;;;;20.63;13.85;;;;;;;5.63;56.48;101029.59;687750;28;1225;-87
2022/03/13 00:41:38;;;;;;;21.20;14.20;;;;;;;5.61;56.57;101026.94;687829;28;1179;-87
2022/03/13 00:41:58;;;;;;;21.48;14.07;;;;;;;5.62;56.17;101028.72;690508;28;1251;-87
2022/03/13 00:42:19;;;;;;;21.98;14.50;;;;;;;5.70;56.33;101036.91;693111;28;1190;-87
2022/03/13 00:42:40;;;;;;;24.02;14.50;;;;;;;5.63;56.47;101025.31;689667;28;1208;-88
2022/03/13 00:43:02;;;;;;;24.75;14.60;;;;;;;5.62;56.25;101023.53;687811;28;1220;-87
2022/03/13 00:43:25;;;;;;;25.00;14.30;;;;;;;5.69;56.34;101028.22;690608;28;999;-87
2022/03/13 00:43:45;;;;;;;22.90;14.45;;;;;;;5.63;56.23;101027.88;693213;28;1357;-87
2022/03/13 00:44:06;;;;;;;20.83;14.60;;;;;;;5.64;56.47;101029.66;692851;28;1405;-87
2022/03/13 00:44:27;;;;;;;19.85;14.15;;;;;;;5.59;56.26;101019.06;690696;28;748;-87
2022/03/13 00:44:49;;;;;;;19.42;13.70;;;;;;;5.65;56.35;101035.75;690422;28;1184;-88
2022/03/13 00:45:09;;;;;;;19.23;13.32;;;;;;;5.57;56.53;101022.38;687877;28;1022;-88
2022/03/13 00:45:30;;;;;;;20.20;13.88;;;;;;;5.56;56.34;101021.50;687833;28;1142;-87
2022/03/13 00:45:52;;;;;;;19.73;13.80;;;;;;;5.59;56.62;101032.03;690617;28;990;-87
2022/03/13 00:46:12;;;;;;;18.45;13.32;;;;;;;5.56;56.38;101025.78;687702;28;1273;-87
2022/03/13 00:46:33;;;;;;;17.60;13.10;;;;;;;5.50;56.51;101016.00;690444;28;1127;-86
2022/03/13 00:46:54;;;;;;;18.08;13.00;;;;;;;5.48;56.31;101028.84;687851;28;1047;-87
2022/03/13 00:47:14;;;;;;;18.07;13.07;;;;;;;5.55;56.48;101040.44;692972;28;1043;-87
2022/03/13 00:47:35;;;;;;;18.23;13.27;;;;;;;5.50;56.39;101025.47;693406;28;787;-87
2022/03/13 00:47:57;;;;;;;18.58;13.32;;;;;;;5.56;56.44;101043.91;690540;28;770;-87
2022/03/13 00:48:18;;;;;;;20.08;13.48;;;;;;;5.50;56.38;101035.81;693132;28;1225;-87
2022/03/13 00:48:41;;;;;;;20.15;13.63;;;;;;;5.45;56.57;101031.28;693271;28;1275;-87
2022/03/13 00:49:01;;;;;;;22.63;13.77;;;;;;;5.46;56.59;101030.47;690535;28;1285;-87
2022/03/13 00:49:22;;;;;;;22.40;14.27;;;;;;;5.49;56.27;101037.53;690374;28;1177;-87
2022/03/13 00:49:42;;;;;;;22.80;14.65;;;;;;;5.43;56.66;101032.03;687383;28;1071;-88
2022/03/13 00:50:07;;;;;;;20.83;15.10;;;;;;;5.46;56.41;101035.66;690320;28;1235;-87
2022/03/13 00:50:28;;;;;;;20.85;14.38;;;;;;;5.45;56.61;101032.97;690545;28;845;-87
2022/03/13 00:50:48;;;;;;;20.20;13.75;;;;;;;5.37;56.45;101022.22;685267;28;1185;-87
2022/03/13 00:51:16;;;;;;;20.55;13.30;;;;;;;5.41;56.24;101026.75;690469;28;1203;-87
2022/03/13 00:51:37;;;;;;;20.08;13.43;;;;;;;5.45;56.32;101039.06;687854;28;1359;-87
2022/03/13 00:52:01;;;;;;;22.08;13.95;;;;;;;5.48;56.72;101036.63;687866;28;1286;-87
2022/03/13 00:52:21;;;;;;;21.48;14.18;;;;;;;5.45;56.82;101028.72;690433;28;1340;-87
2022/03/13 00:52:42;;;;;;;21.88;14.25;;;;;;;5.45;56.48;101026.13;693046;28;1175;-87
2022/03/13 00:53:03;;;;;;;21.15;14.38;;;;;;;5.45;56.64;101027.81;690405;28;1165;-88
2022/03/13 00:53:27;;;;;;;21.33;14.63;;;;;;;5.55;56.61;101044.72;687741;28;1279;-86
2022/03/13 00:53:47;;;;;;;20.42;14.55;;;;;;;5.50;56.71;101041.91;687836;28;2111;-87
2022/03/13 00:54:08;;;;;;;19.73;14.37;;;;;;;5.45;56.50;101033.88;690455;28;1104;-86
2022/03/13 00:54:29;;;;;;;20.13;14.30;;;;;;;5.47;56.68;101034.84;690517;28;1233;-87
2022/03/13 00:54:49;;;;;;;21.05;14.40;;;;;;;5.43;56.51;101026.84;688047;28;748;-87
2022/03/13 00:55:10;;;;;;;22.90;14.90;;;;;;;5.47;56.70;101032.25;686793;28;1548;-87
2022/03/13 00:55:31;;;;;;;22.40;15.07;;;;;;;5.41;56.42;101025.88;690391;28;1171;-87
2022/03/13 00:55:52;;;;;;;23.67;15.35;;;;;;;5.39;56.64;101022.31;687990;28;873;-87
2022/03/13 00:56:13;;;;;;;22.40;15.20;;;;;;;5.47;56.87;101037.44;690392;28;1122;-87
2022/03/13 00:56:33;;;;;;;21.50;14.90;;;;;;;5.47;56.79;101037.44;690645;28;1208;-86
2022/03/13 00:56:54;;;;;;;19.48;14.50;;;;;;;5.47;56.58;101032.25;696001;28;1174;-87
2022/03/13 00:57:16;;;;;;;19.92;14.75;;;;;;;5.47;56.35;101032.25;690359;28;1259;-88
2022/03/13 00:57:37;;;;;;;20.17;14.82;;;;;;;5.46;56.61;101024.44;689737;28;1230;-87
2022/03/13 00:57:58;;;;;;;19.80;14.68;;;;;;;5.47;56.18;101031.38;690486;28;1275;-87
2022/03/13 00:58:19;;;;;;;18.90;14.30;;;;;;;5.51;56.38;101032.44;685137;28;1010;-88
2022/03/13 00:58:40;;;;;;;20.13;14.60;;;;;;;5.50;56.43;101033.22;689180;28;1052;-87
2022/03/13 00:59:01;;;;;;;19.40;14.07;;;;;;;5.52;56.50;101034.22;690594;28;1304;-87
2022/03/13 00:59:22;;;;;;;20.25;14.10;;;;;;;5.54;56.49;101037.78;687858;28;1123;-87
2022/03/13 00:59:43;;;;;;;19.55;14.10;;;;;;;5.47;56.43;101032.25;684763;28;765;-87
2022/03/13 01:00:06;;;;;;;20.50;14.52;;;;;;;5.55;56.25;101043.03;687940;28;994;-87
2022/03/13 01:00:27;;;;;;;21.08;14.90;;;;;;;5.52;56.57;101045.44;690537;28;1302;-88
2022/03/13 01:00:48;;;;;;;20.17;14.18;;;;;;;5.53;56.73;101041.16;687883;28;1302;-87
2022/03/13 01:01:12;;;;;;;18.95;13.60;;;;;;;5.45;56.38;101023.53;687890;28;1101;-87
2022/03/13 01:01:32;;;;;;;18.10;13.68;;;;;;;5.51;56.14;101035.03;690439;28;1272;-87
2022/03/13 01:01:53;;;;;;;18.80;13.70;;;;;;;5.45;55.90;101023.53;687895;28;1240;-87
2022/03/13 01:02:14;;;;;;;19.88;14.32;;;;;;;5.40;56.49;101035.34;687731;28;1206;-87
2022/03/13 01:02:44;;;;;;;20.50;14.50;;;;;;;5.31;56.75;101025.41;690555;28;832;-87
2022/03/13 01:03:05;;;;;;;19.77;14.10;;;;;;;5.42;56.74;101043.19;690631;28;1009;-87
2022/03/13 01:03:50;;;;;;;21.20;14.57;;;;;;;5.37;56.66;101042.94;690370;28;1168;-87
2022/03/13 01:04:11;;;;;;;22.25;15.20;;;;;;;5.37;57.19;101049.81;683410;28;1026;-87
2022/03/13 01:04:32;;;;;;;21.67;15.20;;;;;;;5.28;57.00;101030.38;687757;28;1217;-87
2022/03/13 01:04:54;;;;;;;21.43;15.07;;;;;;;5.26;56.81;101023.34;687775;28;1451;-87
2022/03/13 01:05:56;;;;;;;22.17;14.52;;;;;;;5.26;57.00;101031.09;690314;28;1375;-87
2022/03/13 01:06:19;;;;;;;19.83;14.32;;;;;;;5.22;56.84;101029.19;687723;28;1157;-89
2022/03/13 01:06:41;;;;;;;21.23;15.00;;;;;;;5.26;56.74;101036.28;693182;28;1243;-89
2022/03/13 01:07:10;;;;;;;22.75;15.50;;;;;;;5.26;57.00;101036.28;690681;28;724;-89
2022/03/13 01:07:31;;;;;;;21.30;15.20;;;;;;;5.28;57.22;101037.28;695952;28;920;-89
2022/03/13 01:07:53;;;;;;;21.27;14.98;;;;;;;5.20;56.88;101027.41;690466;28;1220;-89
2022/03/13 01:08:13;;;;;;;20.67;14.70;;;;;;;5.24;57.10;101027.56;690228;28;1371;-88
2022/03/13 01:08:35;;;;;;;21.58;14.75;;;;;;;5.33;57.20;101048.75;688080;28;1234;-89
2022/03/13 01:08:56;;;;;;;21.77;14.45;;;;;;;5.25;57.23;101032.81;693147;28;1355;-89
2022/03/13 01:09:17;;;;;;;21.40;14.32;;;;;;;5.31;57.19;101045.19;690451;28;1245;-89
2022/03/13 01:09:41;;;;;;;21.20;14.40;;;;;;;5.29;57.17;101039.94;689716;28;1190;-89
2022/03/13 01:10:04;;;;;;;19.38;13.95;;;;;;;5.29;57.44;101042.50;690481;28;1257;-89
2022/03/13 01:10:25;;;;;;;19.40;14.10;;;;;;;5.30;57.41;101046.91;690357;28;1397;-90
2022/03/13 01:10:46;;;;;;;21.30;14.98;;;;;;;5.19;57.07;101024.72;692843;28;1168;-89
2022/03/13 01:11:07;;;;;;;24.40;15.38;;;;;;;5.25;57.39;101039.69;690327;28;1276;-88
2022/03/13 01:11:30;;;;;;;25.00;15.30;;;;;;;5.24;57.42;101032.72;693169;28;1196;-89
2022/03/13 01:11:51;;;;;;;25.75;15.23;;;;;;;5.32;57.47;101046.97;687677;28;1351;-89
2022/03/13 01:12:12;;;;;;;22.75;14.57;;;;;;;5.27;57.35;101038.09;687468;28;1228;-89
2022/03/13 01:12:33;;;;;;;21.98;14.60;;;;;;;5.31;57.18;101047.78;693111;28;1234;-89
2022/03/13 01:12:54;;;;;;;22.85;14.93;;;;;;;5.20;57.34;101027.41;690244;28;1268;-89
2022/03/13 01:13:14;;;;;;;23.70;15.15;;;;;;;5.22;57.44;101027.50;687620;28;1322;-89
2022/03/13 01:13:35;;;;;;;23.17;15.45;;;;;;;5.29;57.47;101036.47;687799;28;1193;-89
2022/03/13 01:13:56;;;;;;;24.27;15.80;;;;;;;5.29;57.37;101036.47;693164;28;1916;-89
2022/03/13 01:14:19;;;;;;;23.95;15.77;;;;;;;5.24;57.45;101019.78;693035;28;1271;-89
2022/03/13 01:14:42;;;;;;;25.80;15.95;;;;;;;5.26;57.04;101015.56;690533;28;810;-89
2022/03/13 01:15:04;;;;;;;21.77;15.00;;;;;;;5.22;57.12;101011.97;685014;28;1241;-89
2022/03/13 01:15:26;;;;;;;21.48;14.77;;;;;;;5.22;57.04;101019.72;687765;28;1064;-89
2022/03/13 01:15:49;;;;;;;20.90;14.32;;;;;;;5.28;57.36;101029.50;690484;28;1306;-89
2022/03/13 01:16:14;;;;;;;21.30;14.40;;;;;;;5.22;57.56;101019.72;690152;28;1381;-88
2022/03/13 01:16:40;;;;;;;20.35;14.48;;;;;;;5.30;57.30;101039.16;693703;28;1407;-89
2022/03/13 01:17:06;;;;;;;19.08;14.07;;;;;;;5.23;57.63;101026.69;690640;28;909;-89
2022/03/13 01:17:27;;;;;;;19.73;14.05;;;;;;;5.32;57.45;101039.19;690357;28;1300;-89
2022/03/13 01:17:48;;;;;;;20.10;14.40;;;;;;;5.26;57.48;101028.50;690076;28;1304;-89
2022/03/13 01:18:10;;;;;;;21.20;14.60;;;;;;;5.19;57.13;101024.72;693027;28;1229;-89
2022/03/13 01:18:30;;;;;;;20.92;14.48;;;;;;;5.22;57.49;101029.19;690250;28;1267;-89
2022/03/13 01:18:56;;;;;;;21.23;14.50;;;;;;;5.18;57.24;101029.03;690985;28;770;-89
2022/03/13 01:19:16;;;;;;;22.00;14.93;;;;;;;5.18;57.61;101028.13;693629;28;1052;-90
2022/03/13 01:19:37;;;;;;;25.33;15.07;;;;;;;5.12;57.57;101022.59;693327;28;1364;-89
2022/03/13 01:19:58;;;;;;;26.17;14.70;;;;;;;5.19;57.34;101035.97;696321;28;1457;-89
2022/03/13 01:20:21;;;;;;;24.77;14.13;;;;;;;5.09;57.21;101014.69;693558;28;1254;-89
2022/03/13 01:20:46;;;;;;;21.55;14.02;;;;;;;5.10;57.36;101027.72;696487;28;1235;-89
2022/03/13 01:21:10;;;;;;;24.70;14.50;;;;;;;5.11;57.39;101026.00;696542;28;1246;-89
2022/03/13 01:21:34;;;;;;;25.92;14.98;;;;;;;5.13;57.48;101034.72;693615;28;1234;-89
2022/03/13 01:21:55;;;;;;;21.55;14.43;;;;;;;5.04;57.45;101015.31;693670;28;1084;-89
2022/03/13 01:22:16;;;;;;;21.27;14.13;;;;;;;5.09;57.08;101032.78;688174;28;1277;-89
2022/03/13 01:22:36;;;;;;;20.60;13.27;;;;;;;5.05;57.21;101026.56;691212;28;786;-89
2022/03/13 01:22:57;;;;;;;22.38;13.40;;;;;;;5.12;57.46;101032.94;690959;28;1300;-89
2022/03/13 01:23:19;;;;;;;21.75;13.68;;;;;;;5.07;57.33;101024.94;693265;28;1304;-90
2022/03/13 01:23:40;;;;;;;21.20;13.85;;;;;;;5.09;57.21;101027.63;695751;28;1280;-89
2022/03/13 01:24:01;;;;;;;19.90;13.77;;;;;;;5.15;57.57;101039.19;693791;28;832;-89
2022/03/13 01:24:31;;;;;;;21.10;13.97;;;;;;;5.06;57.35;101025.75;693889;28;1719;-89
2022/03/13 01:24:53;;;;;;;21.95;14.70;;;;;;;5.08;57.61;101031.91;691038;28;862;-89
2022/03/13 01:25:14;;;;;;;21.08;14.68;;;;;;;5.01;57.52;101016.84;688060;28;1001;-89
2022/03/13 01:25:36;;;;;;;20.15;14.70;;;;;;;5.03;57.40;101018.72;691028;28;874;-89
2022/03/13 01:26:36;;;;;;;21.38;15.00;;;;;;;5.08;57.61;101021.53;693618;28;1394;-89
2022/03/13 01:27:02;;;;;;;22.83;15.45;;;;;;;5.14;57.25;101028.75;687904;28;1399;-89
2022/03/13 01:27:22;;;;;;;22.60;14.85;;;;;;;5.10;57.56;101014.78;685443;28;1245;-89
2022/03/13 01:27:43;;;;;;;23.27;14.70;;;;;;;5.04;57.27;101011.84;685570;28;908;-89
2022/03/13 01:28:04;;;;;;;24.20;14.85;;;;;;;5.10;57.53;101017.38;688094;28;1155;-88
2022/03/13 01:28:25;;;;;;;22.95;14.85;;;;;;;5.09;57.35;101018.16;685529;28;1082;-89
2022/03/13 01:28:46;;;;;;;22.10;14.60;;;;;;;5.05;57.71;101008.47;685583;28;1227;-89
2022/03/13 01:29:10;;;;;;;21.67;14.60;;;;;;;5.07;57.69;101010.31;688088;28;1106;-89
2022/03/13 01:29:32;;;;;;;21.80;14.30;;;;;;;5.09;57.85;101020.75;690611;28;1128;-89
2022/03/13 01:29:54;;;;;;;21.55;14.32;;;;;;;5.07;57.76;101017.19;696332;28;771;-89
2022/03/13 01:30:14;;;;;;;22.08;14.40;;;;;;;5.13;57.79;101024.38;693148;28;1514;-89
2022/03/13 01:30:35;;;;;;;20.73;14.48;;;;;;;5.07;57.67;101024.94;690424;28;1287;-90
2022/03/13 01:30:55;;;;;;;23.07;14.83;;;;;;;5.04;57.62;101012.72;690213;28;1234;-89
2022/03/13 01:31:21;;;;;;;24.05;14.40;;;;;;;5.04;57.87;101007.56;695267;28;1219;-89
2022/03/13 01:31:46;;;;;;;23.15;13.98;;;;;;;5.05;57.83;101011.91;695014;28;2291;-89
2022/03/13 01:32:09;;;;;;;21.60;14.27;;;;;;;5.13;57.87;101022.69;693573;28;1161;-89
2022/03/13 01:32:32;;;;;;;21.23;14.35;;;;;;;5.06;57.84;101005.06;690921;28;1238;-89
2022/03/13 01:32:54;;;;;;;22.74;14.54;;;;;;;5.11;57.87;101016.56;696408;28;1184;-89
2022/03/13 01:33:14;;;;;;;20.60;13.85;;;;;;;5.04;57.61;101010.13;695270;28;1271;-88
2022/03/13 01:33:35;;;;;;;21.80;14.18;;;;;;;5.05;57.83;101011.91;696395;28;1368;-89
2022/03/13 01:33:57;;;;;;;20.15;13.80;;;;;;;4.99;57.67;101002.94;691010;28;1891;-89
2022/03/13 01:34:38;;;;;;;21.15;13.88;;;;;;;5.08;57.58;101011.19;693387;28;1389;-89
2022/03/13 01:34:59;;;;;;;21.58;14.18;;;;;;;5.10;57.77;101022.53;693806;28;811;-89
2022/03/13 01:35:21;;;;;;;20.38;14.25;;;;;;;5.07;57.76;101015.50;693587;28;1258;-89
2022/03/13 01:35:42;;;;;;;19.20;14.02;;;;;;;5.05;57.62;101011.03;691027;28;1373;-89
2022/03/13 01:36:03;;;;;;;19.67;14.47;;;;;;;4.97;57.95;100996.81;698960;28;1236;-89
2022/03/13 01:36:25;;;;;;;19.73;14.13;;;;;;;5.03;57.63;101013.53;693349;28;1206;-89
2022/03/13 01:36:46;;;;;;;19.20;14.02;;;;;;;5.06;57.86;101007.66;693660;28;1108;-89
2022/03/13 01:37:11;;;;;;;19.90;14.53;;;;;;;5.06;57.39;101007.66;696304;28;1158;-89
2022/03/13 01:37:39;;;;;;;21.20;14.55;;;;;;;5.04;57.78;101004.97;696477;28;1387;-89
2022/03/13 01:38:07;;;;;;;21.92;14.10;;;;;;;4.99;57.68;101005.53;696249;28;1113;-89
2022/03/13 01:38:32;;;;;;;21.85;14.10;;;;;;;4.98;57.67;100999.50;690979;28;1215;-89
2022/03/13 01:38:57;;;;;;;21.08;14.32;;;;;;;5.06;57.71;101018.00;693574;28;1213;-89
2022/03/13 01:39:18;;;;;;;20.80;14.30;;;;;;;5.00;57.68;101009.88;693308;28;1297;-89
2022/03/13 01:39:39;;;;;;;21.63;14.73;;;;;;;5.03;57.67;101012.66;690333;28;1076;-89
2022/03/13 01:40:04;;;;;;;20.77;14.80;;;;;;;4.91;57.81;100995.66;690946;28;1367;-89
2022/03/13 01:40:25;;;;;;;21.55;14.80;;;;;;;4.98;57.72;100999.50;688249;28;1005;-89
2022/03/13 01:40:46;;;;;;;20.27;14.33;;;;;;;4.93;57.58;100998.34;690898;28;1160;-89
2022/03/13 01:41:12;;;;;;;20.55;14.90;;;;;;;5.00;57.84;100999.53;695893;28;1380;-89
2022/03/13 01:41:35;;;;;;;20.85;14.90;;;;;;;4.96;57.46;100995.91;693594;28;1261;-88
2022/03/13 01:42:11;;;;;;;20.98;14.63;;;;;;;4.96;57.67;100995.03;690522;28;1347;-89
2022/03/13 01:42:31;;;;;;;20.92;14.60;;;;;;;4.95;57.70;100998.44;690863;28;1740;-89
2022/03/13 01:42:54;;;;;;;22.23;14.63;;;;;;;5.00;57.60;101007.31;689128;28;1159;-89
2022/03/13 01:43:15;;;;;;;21.88;14.25;;;;;;;4.93;57.71;100996.63;688036;28;1237;-89
2022/03/13 01:43:36;;;;;;;22.03;14.10;;;;;;;4.99;57.83;101002.94;690900;28;1194;-88
2022/03/13 01:44:00;;;;;;;24.30;14.45;;;;;;;4.95;57.90;100996.72;690811;28;1226;-89
2022/03/13 01:44:21;;;;;;;24.20;14.32;;;;;;;4.96;57.82;101000.19;688161;28;1026;-89
2022/03/13 01:44:42;;;;;;;24.20;14.13;;;;;;;4.95;57.92;100998.44;690944;28;1231;-90
2022/03/13 01:45:10;;;;;;;20.50;13.30;;;;;;;4.99;57.82;101005.53;688169;28;1196;-89
2022/03/13 01:45:30;;;;;;;20.42;13.50;;;;;;;5.03;58.03;101007.50;688140;28;887;-89
2022/03/13 01:45:52;;;;;;;19.33;13.20;;;;;;;4.87;57.82;100980.78;693676;28;1274;-89
2022/03/13 01:46:12;;;;;;;18.73;12.80;;;;;;;4.94;57.52;100997.53;696052;28;1212;-89
2022/03/13 01:46:33;;;;;;;19.23;13.13;;;;;;;4.96;57.75;101003.66;690952;28;1171;-89
2022/03/13 01:46:54;;;;;;;19.02;13.52;;;;;;;4.96;57.58;101000.19;691020;28;829;-89
2022/03/13 01:47:15;;;;;;;19.15;14.07;;;;;;;4.98;57.47;101002.06;690852;28;985;-89
2022/03/13 01:47:36;;;;;;;19.92;14.18;;;;;;;5.00;57.91;101007.31;690868;28;817;-89
2022/03/13 01:47:57;;;;;;;20.05;14.20;;;;;;;4.93;57.82;100990.56;688412;28;1310;-89